Time;durP1;ratioP1;P1;durP2;ratioP2;P2;SDS_P1;SDS_P2;PMS_P1;PMS_P2;Temp;Humidity;BMP_temperature;BMP_pressure;BME280_temperature;BME280_humidity;BME280_pressure;Samples;Min_cycle;Max_cycle;Signal;HPM_P1;HPM_P2
2022/01/15 00:01:50;;;;;;;5.37;3.60;;;;;;;-0.45;60.21;96859.72;4960330;28;20110;-59
2022/01/15 00:04:16;;;;;;;5.65;3.70;;;;;;;-0.45;58.84;96857.09;4962481;28;20087;-60
2022/01/15 00:06:41;;;;;;;5.75;3.70;;;;;;;-0.45;60.22;96857.09;4963525;28;20107;-59
2022/01/15 00:09:07;;;;;;;4.88;3.47;;;;;;;-0.41;60.72;96857.78;4963700;28;20099;-62
2022/01/15 00:11:34;;;;;;;6.35;4.05;;;;;;;-0.39;59.82;96849.84;4964082;28;20071;-62
2022/01/15 00:14:12;;;;;;;5.82;3.88;;;;;;;-0.49;59.82;96850.34;4966000;28;20594;-62
2022/01/15 00:16:56;;;;;;;5.85;3.75;;;;;;;-0.46;60.02;96850.19;4965459;28;20091;-63
2022/01/15 00:19:32;;;;;;;5.70;3.85;;;;;;;-0.39;60.48;96847.25;4958253;28;20537;-63
2022/01/15 00:21:57;;;;;;;6.03;4.03;;;;;;;-0.40;60.01;96849.03;4966850;28;20177;-63
2022/01/15 00:24:24;;;;;;;6.85;4.57;;;;;;;-0.39;60.39;96844.63;4967352;28;20090;-60
2022/01/15 00:26:50;;;;;;;6.22;3.92;;;;;;;-0.39;60.63;96849.84;4967000;28;20106;-60
2022/01/15 00:29:15;;;;;;;6.45;4.13;;;;;;;-0.37;60.04;96854.09;4979251;28;20113;-59
2022/01/15 00:31:41;;;;;;;5.50;4.03;;;;;;;-0.38;59.77;96846.31;4967081;28;20079;-60
2022/01/15 00:34:06;;;;;;;5.70;3.70;;;;;;;-0.38;60.83;96841.94;4966903;28;20107;-60
2022/01/15 00:36:31;;;;;;;7.18;4.10;;;;;;;-0.42;59.68;96840.41;4977660;28;20091;-62
2022/01/15 00:38:57;;;;;;;7.60;4.35;;;;;;;-0.45;58.81;96838.78;4970342;28;20535;-62
2022/01/15 00:41:22;;;;;;;6.50;4.00;;;;;;;-0.52;60.49;96837.41;4966734;28;20111;-62
2022/01/15 00:43:48;;;;;;;6.15;4.10;;;;;;;-0.56;60.08;96817.56;4967179;28;20114;-62
2022/01/15 00:46:13;;;;;;;7.28;4.20;;;;;;;-0.59;60.59;96825.56;4979319;28;20111;-62
2022/01/15 00:48:39;;;;;;;6.15;4.00;;;;;;;-0.68;60.26;96834.72;4966715;28;20556;-62
2022/01/15 00:51:04;;;;;;;7.38;4.35;;;;;;;-0.80;60.16;96820.50;4966700;28;20126;-62
2022/01/15 00:53:29;;;;;;;5.88;4.03;;;;;;;-0.65;60.70;96813.63;4966662;28;20107;-63
2022/01/15 00:55:55;;;;;;;5.45;3.80;;;;;;;-0.64;60.39;96814.50;4967103;28;20095;-62
2022/01/15 00:58:20;;;;;;;4.88;3.40;;;;;;;-0.67;60.42;96820.72;4966001;28;20408;-62
2022/01/15 01:00:46;;;;;;;6.30;3.92;;;;;;;-0.61;60.44;96825.63;4955707;28;20099;-62
2022/01/15 01:03:11;;;;;;;5.90;4.03;;;;;;;-0.63;60.93;96816.19;4966157;28;20560;-62
2022/01/15 01:05:36;;;;;;;5.85;3.97;;;;;;;-0.65;60.33;96811.03;4979346;28;20119;-62
2022/01/15 01:08:02;;;;;;;5.25;3.70;;;;;;;-0.65;60.81;96812.81;4966995;28;20075;-62
2022/01/15 01:23:32;;;;;;;5.43;3.47;;;;;;;-0.70;61.00;96815.66;4966540;28;20091;-63
2022/01/15 01:26:06;;;;;;;6.32;3.92;;;;;;;-0.72;61.12;96802.66;4970051;28;20141;-62
2022/01/15 01:28:37;;;;;;;6.05;3.95;;;;;;;-0.77;60.57;96795.94;4971571;28;20432;-63
2022/01/15 01:31:25;;;;;;;6.82;4.43;;;;;;;-1.04;52.76;96801.59;4965919;28;20110;-62
2022/01/15 01:33:54;;;;;;;5.35;3.35;;;;;;;-0.98;60.56;96804.75;4967379;28;20107;-63
2022/01/15 01:36:35;;;;;;;5.05;3.00;;;;;;;-0.92;61.16;96797.59;4975971;28;20362;-62
2022/01/15 01:39:06;;;;;;;5.47;3.22;;;;;;;-0.90;61.35;96787.88;4964302;28;20154;-63
2022/01/15 01:41:36;;;;;;;4.68;3.08;;;;;;;-0.86;61.35;96799.88;4965429;28;20111;-63
2022/01/15 01:44:03;;;;;;;4.50;3.33;;;;;;;-0.85;61.53;96801.56;4966052;28;20137;-63
2022/01/15 01:48:55;;;;;;;5.43;3.30;;;;;;;-0.89;61.10;96794.78;4970427;28;20107;-63
2022/01/15 01:51:29;;;;;;;4.38;3.03;;;;;;;-0.87;61.34;96795.56;4965491;28;20181;-63
2022/01/15 01:53:55;;;;;;;4.40;3.13;;;;;;;-0.89;61.07;96798.25;4965468;28;20612;-63
2022/01/15 01:56:21;;;;;;;3.13;2.75;;;;;;;-0.93;61.25;96801.97;4983071;28;20097;-63
2022/01/15 01:58:46;;;;;;;3.22;2.70;;;;;;;-0.92;60.77;96801.03;4968272;28;20112;-63
2022/01/15 02:01:12;;;;;;;3.78;2.78;;;;;;;-0.92;61.08;96794.97;4964412;28;20099;-63
2022/01/15 02:03:37;;;;;;;3.58;2.90;;;;;;;-0.91;61.48;96797.50;4965445;28;20346;-63
2022/01/15 02:06:03;;;;;;;3.90;2.90;;;;;;;-0.90;60.80;96800.94;4965089;28;20182;-63
2022/01/15 02:08:29;;;;;;;3.58;2.80;;;;;;;-0.90;60.62;96786.13;4969846;28;20284;-63
2022/01/15 02:10:57;;;;;;;3.80;2.70;;;;;;;-0.88;61.05;96784.25;4972333;28;20111;-63
2022/01/15 02:13:22;;;;;;;3.35;2.70;;;;;;;-0.88;60.37;96780.81;4944371;28;20107;-63
2022/01/15 02:15:48;;;;;;;3.60;2.85;;;;;;;-0.88;61.23;96780.81;4957971;28;20504;-63
2022/01/15 02:18:14;;;;;;;3.38;2.55;;;;;;;-0.88;60.55;96772.97;4964670;28;20099;-63
2022/01/15 02:23:35;;;;;;;3.13;2.47;;;;;;;-0.86;60.88;96765.88;4932762;28;20116;-63
2022/01/15 02:26:05;;;;;;;2.72;2.30;;;;;;;-0.84;61.06;96777.13;4964820;28;20102;-63
2022/01/15 02:28:33;;;;;;;3.25;2.60;;;;;;;-0.83;60.74;96770.97;4964696;28;20099;-63
2022/01/15 02:31:00;;;;;;;2.95;2.47;;;;;;;-0.79;60.13;96779.47;4963504;28;20103;-63
2022/01/15 02:33:26;;;;;;;3.20;2.60;;;;;;;-0.80;60.21;96773.44;4963363;28;20115;-63
2022/01/15 02:35:51;;;;;;;2.53;2.33;;;;;;;-0.80;61.08;96773.44;4963288;28;20713;-63
2022/01/15 02:38:17;;;;;;;3.05;2.35;;;;;;;-0.88;56.71;96765.13;4964311;28;20142;-63
2022/01/15 02:40:42;;;;;;;4.30;2.80;;;;;;;-0.91;60.22;96768.75;4964175;28;20133;-63
2022/01/15 02:43:11;;;;;;;3.33;2.50;;;;;;;-0.82;60.53;96775.25;4964935;28;20079;-63
2022/01/15 02:45:38;;;;;;;3.37;2.40;;;;;;;-0.70;61.13;96772.00;4963030;28;20194;-63
2022/01/15 02:48:11;;;;;;;3.67;2.70;;;;;;;-0.63;60.66;96769.09;4964714;28;20626;-64
2022/01/15 02:50:37;;;;;;;2.63;2.38;;;;;;;-0.54;60.14;96771.22;4969378;28;20149;-63
2022/01/15 02:53:03;;;;;;;3.13;2.40;;;;;;;-0.48;60.16;96768.28;4953389;28;20569;-63
2022/01/15 02:55:28;;;;;;;3.08;2.55;;;;;;;-0.43;59.88;96755.81;4964294;28;20079;-64
2022/01/15 02:57:54;;;;;;;3.03;2.30;;;;;;;-0.39;60.31;96759.13;4964194;28;20111;-63
2022/01/15 03:00:21;;;;;;;4.15;2.45;;;;;;;-0.36;59.68;96763.34;4953033;28;20102;-64
2022/01/15 03:02:46;;;;;;;2.40;2.20;;;;;;;-0.32;59.21;96762.25;4963921;28;20103;-61
2022/01/15 03:05:12;;;;;;;2.40;2.20;;;;;;;-0.26;59.40;96761.09;4971599;28;20479;-62
2022/01/15 03:07:37;;;;;;;2.95;2.17;;;;;;;-0.23;59.47;96763.53;4971582;28;20094;-62
2022/01/15 03:10:06;;;;;;;2.55;2.20;;;;;;;-0.19;59.49;96758.03;4963927;28;20114;-63
2022/01/15 03:12:31;;;;;;;2.92;2.28;;;;;;;-0.15;58.92;96748.28;4963929;28;20095;-63
2022/01/15 03:15:01;;;;;;;3.50;2.38;;;;;;;-0.12;58.58;96745.50;4964275;28;20091;-60
2022/01/15 03:17:26;;;;;;;2.78;2.40;;;;;;;-0.07;59.52;96750.47;4950712;28;20114;-59
2022/01/15 03:19:52;;;;;;;3.20;2.25;;;;;;;-0.01;59.03;96751.91;4964315;28;20115;-60
2022/01/15 03:22:17;;;;;;;5.82;2.05;;;;;;;0.01;58.91;96748.28;4964050;28;20103;-60
2022/01/15 03:24:43;;;;;;;2.60;2.20;;;;;;;0.04;59.26;96747.28;4963761;28;20105;-60
2022/01/15 03:27:08;;;;;;;2.63;2.28;;;;;;;0.07;59.19;96737.47;4964284;28;20071;-60
2022/01/15 03:29:33;;;;;;;2.30;2.10;;;;;;;0.11;58.21;96732.91;4963664;28;20150;-61
2022/01/15 03:31:59;;;;;;;2.65;2.13;;;;;;;0.17;58.72;96745.66;4964581;28;20146;-62
2022/01/15 03:34:24;;;;;;;2.72;2.33;;;;;;;0.19;58.25;96748.19;4964088;28;20103;-60
2022/01/15 03:36:50;;;;;;;2.28;1.90;;;;;;;0.25;58.06;96749.63;4963659;28;20162;-60
2022/01/15 03:39:15;;;;;;;3.35;2.20;;;;;;;0.26;58.43;96741.69;4963960;28;20075;-60
2022/01/15 03:41:41;;;;;;;4.28;2.20;;;;;;;0.31;58.24;96749.31;4963720;28;20111;-60
2022/01/15 03:44:06;;;;;;;2.33;2.10;;;;;;;0.37;58.03;96743.69;4964058;28;20528;-62
2022/01/15 03:46:31;;;;;;;3.03;2.30;;;;;;;0.45;57.81;96745.91;4963679;28;20102;-60
2022/01/15 03:48:57;;;;;;;3.15;2.33;;;;;;;0.49;57.56;96736.94;4966690;28;20126;-60
2022/01/15 03:51:22;;;;;;;7.65;3.00;;;;;;;0.53;57.66;96727.97;4967336;28;20118;-62
2022/01/15 03:53:47;;;;;;;4.70;3.28;;;;;;;0.59;57.36;96724.97;4967666;28;20107;-60
2022/01/15 03:56:13;;;;;;;6.53;2.80;;;;;;;0.62;57.51;96728.38;4967771;28;20507;-60
2022/01/15 03:58:38;;;;;;;4.72;2.30;;;;;;;0.64;57.38;96726.50;4964703;28;20108;-62
2022/01/15 04:01:04;;;;;;;4.95;1.92;;;;;;;0.67;57.62;96728.94;4960764;28;20114;-62
2022/01/15 04:03:29;;;;;;;7.40;1.90;;;;;;;0.70;57.32;96728.78;4967971;28;20109;-62
2022/01/15 04:05:54;;;;;;;3.05;2.00;;;;;;;0.74;57.09;96725.03;4967272;28;20099;-62
2022/01/15 04:08:20;;;;;;;3.83;2.00;;;;;;;0.77;57.36;96713.53;4967496;28;20338;-63
2022/01/15 04:10:45;;;;;;;2.13;1.80;;;;;;;0.78;56.84;96718.69;4966774;28;20103;-62
2022/01/15 04:13:15;;;;;;;3.65;2.22;;;;;;;0.80;57.04;96714.19;4967239;28;20468;-63
2022/01/15 04:15:40;;;;;;;3.60;1.80;;;;;;;0.77;57.11;96706.50;4967177;28;20158;-63
2022/01/15 04:18:06;;;;;;;2.78;2.08;;;;;;;0.80;56.76;96708.97;4964951;28;20145;-62
2022/01/15 04:20:31;;;;;;;2.08;1.88;;;;;;;0.84;57.26;96707.84;4967271;28;20480;-63
2022/01/15 04:22:56;;;;;;;2.38;1.90;;;;;;;0.90;56.37;96701.41;4967410;28;20094;-63
2022/01/15 04:25:22;;;;;;;1.67;1.58;;;;;;;0.92;56.13;96703.94;4966736;28;20107;-63
2022/01/15 04:27:47;;;;;;;2.20;1.83;;;;;;;0.92;56.60;96703.94;4967229;28;20090;-63
2022/01/15 04:30:13;;;;;;;3.90;1.83;;;;;;;0.93;56.30;96697.75;4967045;28;20472;-63
2022/01/15 04:32:39;;;;;;;2.30;2.00;;;;;;;0.96;56.22;96690.53;4965721;28;20079;-63
2022/01/15 04:35:05;;;;;;;2.25;2.00;;;;;;;0.97;56.33;96688.75;4966910;28;20106;-63
2022/01/15 04:37:40;;;;;;;2.22;1.85;;;;;;;0.97;56.14;96686.13;4966813;28;20107;-63
2022/01/15 04:40:07;;;;;;;2.10;1.90;;;;;;;0.98;56.43;96685.19;4966744;28;20498;-63
2022/01/15 04:42:32;;;;;;;5.45;1.88;;;;;;;0.97;56.42;96679.13;4965628;28;20113;-63
2022/01/15 04:44:58;;;;;;;2.85;1.90;;;;;;;0.98;55.98;96691.28;4966764;28;20111;-63
2022/01/15 04:47:24;;;;;;;5.55;1.85;;;;;;;0.98;55.89;96690.44;4966851;28;20544;-64
2022/01/15 04:49:50;;;;;;;2.28;1.83;;;;;;;0.98;55.82;96685.19;4964979;28;20154;-64
2022/01/15 04:52:15;;;;;;;2.47;1.90;;;;;;;0.98;55.94;96677.31;4966693;28;20119;-63
2022/01/15 04:54:40;;;;;;;2.40;1.73;;;;;;;0.99;55.86;96671.16;4966484;28;20103;-63
2022/01/15 04:57:06;;;;;;;2.72;1.90;;;;;;;1.01;55.70;96669.28;4965797;28;20107;-63
2022/01/15 04:59:31;;;;;;;3.38;1.65;;;;;;;1.04;55.69;96665.63;4956326;28;20114;-63
2022/01/15 05:01:57;;;;;;;2.80;1.75;;;;;;;1.04;56.12;96663.84;4963533;28;20520;-63
2022/01/15 05:04:22;;;;;;;2.45;1.88;;;;;;;1.04;55.75;96668.25;4966663;28;20194;-64
2022/01/15 05:06:48;;;;;;;2.03;1.80;;;;;;;1.04;55.52;96657.75;4966387;28;20106;-63
2022/01/15 05:09:13;;;;;;;2.67;1.90;;;;;;;1.03;55.78;96662.19;4966144;28;20110;-64
2022/01/15 05:11:47;;;;;;;3.95;2.10;;;;;;;0.98;55.31;96658.97;4972669;28;20075;-64
2022/01/15 05:14:14;;;;;;;3.28;1.63;;;;;;;0.98;56.03;96658.97;4968027;28;20103;-59
2022/01/15 05:16:40;;;;;;;2.35;1.77;;;;;;;0.87;54.90;96657.00;4965242;28;20105;-59
2022/01/15 05:19:05;;;;;;;2.35;1.90;;;;;;;0.94;56.12;96652.22;4958730;28;20084;-60
2022/01/15 05:21:31;;;;;;;5.03;1.70;;;;;;;0.93;56.07;96656.66;4956271;28;20117;-60
2022/01/15 05:23:56;;;;;;;5.38;1.85;;;;;;;0.96;55.80;96650.38;4958078;28;20087;-59
2022/01/15 05:26:21;;;;;;;2.95;2.10;;;;;;;1.11;53.06;96651.22;4963779;28;20103;-60
2022/01/15 05:28:47;;;;;;;6.55;1.92;;;;;;;1.13;53.40;96651.13;4965761;28;20078;-59
2022/01/15 05:31:13;;;;;;;5.80;1.88;;;;;;;1.11;52.55;96648.59;4966033;28;20087;-59
2022/01/15 05:33:38;;;;;;;4.22;2.65;;;;;;;1.08;51.90;96654.88;4965702;28;20462;-59
2022/01/15 05:36:04;;;;;;;5.45;2.50;;;;;;;1.09;52.27;96646.06;4964838;28;20098;-59
2022/01/15 05:38:29;;;;;;;4.30;2.50;;;;;;;1.07;52.27;96645.31;4965577;28;20131;-60
2022/01/15 05:40:54;;;;;;;8.05;2.60;;;;;;;1.05;51.32;96648.94;4965488;28;20619;-60
2022/01/15 05:43:20;;;;;;;14.55;2.38;;;;;;;0.74;51.33;96651.63;4966118;28;20087;-60
2022/01/15 05:45:45;;;;;;;5.55;2.80;;;;;;;1.00;49.47;96651.00;4965731;28;20120;-60
2022/01/15 05:48:11;;;;;;;7.18;2.30;;;;;;;1.04;48.46;96652.50;4969133;28;20089;-60
2022/01/15 05:50:36;;;;;;;8.20;2.42;;;;;;;0.95;50.45;96653.91;4978098;28;20130;-60
2022/01/15 05:53:02;;;;;;;7.63;2.30;;;;;;;0.80;49.78;96643.41;4963881;28;20103;-61
2022/01/15 05:55:27;;;;;;;5.45;2.72;;;;;;;0.70;51.40;96648.34;4963786;28;20133;-59
2022/01/15 05:57:52;;;;;;;3.85;2.65;;;;;;;0.78;51.32;96642.66;4965428;28;20110;-59
2022/01/15 06:00:18;;;;;;;5.40;2.45;;;;;;;0.83;51.21;96648.47;4963276;28;20099;-59
2022/01/15 06:02:43;;;;;;;3.70;2.05;;;;;;;0.88;50.86;96652.59;4965018;28;20107;-59
2022/01/15 06:05:09;;;;;;;2.55;2.20;;;;;;;0.86;52.73;96644.81;4964974;28;20099;-58
2022/01/15 06:07:34;;;;;;;5.10;2.40;;;;;;;0.90;50.69;96653.34;4965495;28;20075;-59
2022/01/15 06:10:00;;;;;;;8.55;2.20;;;;;;;0.88;52.13;96649.97;4964638;28;20103;-59
2022/01/15 06:12:30;;;;;;;8.18;2.13;;;;;;;0.82;52.96;96651.19;4964729;28;20146;-59
2022/01/15 06:14:56;;;;;;;4.32;2.25;;;;;;;0.89;52.52;96646.41;4964682;28;20638;-59
2022/01/15 06:17:21;;;;;;;10.88;2.40;;;;;;;0.94;50.83;96649.59;4962489;28;20311;-59
2022/01/15 06:19:47;;;;;;;11.18;2.08;;;;;;;0.88;51.04;96649.97;4965433;28;20087;-59
2022/01/15 06:22:12;;;;;;;8.27;2.30;;;;;;;1.03;48.97;96659.56;4964922;28;20099;-59
2022/01/15 06:24:37;;;;;;;8.02;2.50;;;;;;;1.04;50.09;96649.88;4964608;28;20603;-59
2022/01/15 06:27:04;;;;;;;13.35;2.38;;;;;;;0.93;51.47;96647.91;4965033;28;20151;-59
2022/01/15 06:29:30;;;;;;;16.90;2.40;;;;;;;0.87;51.67;96650.91;4964758;28;20296;-59
2022/01/15 06:31:55;;;;;;;6.75;2.30;;;;;;;1.00;49.29;96649.25;4964047;28;20083;-59
2022/01/15 06:34:20;;;;;;;16.00;1.83;;;;;;;1.15;48.31;96638.72;4964839;28;20111;-59
2022/01/15 06:36:46;;;;;;;7.13;1.90;;;;;;;1.04;48.59;96653.38;4963606;28;20099;-59
2022/01/15 06:39:12;;;;;;;20.38;1.92;;;;;;;0.24;55.40;96654.47;4964602;28;20078;-59
2022/01/15 06:41:37;;;;;;;6.68;1.83;;;;;;;0.68;51.64;96650.22;4964195;28;20102;-59
2022/01/15 06:44:03;;;;;;;5.97;2.30;;;;;;;0.84;50.89;96641.44;4964733;28;20487;-59
2022/01/15 06:46:28;;;;;;;7.20;2.00;;;;;;;0.75;51.47;96653.31;4963027;28;20162;-59
2022/01/15 06:48:53;;;;;;;17.52;2.28;;;;;;;0.94;49.68;96654.84;4964208;28;20317;-59
2022/01/15 06:51:19;;;;;;;13.50;2.22;;;;;;;0.82;48.90;96638.91;4964400;28;20123;-59
2022/01/15 06:53:44;;;;;;;8.38;1.73;;;;;;;0.89;50.75;96644.63;4964338;28;20499;-59
2022/01/15 06:56:10;;;;;;;6.68;1.73;;;;;;;0.74;49.56;96651.63;4963174;28;20425;-59
2022/01/15 06:58:35;;;;;;;7.45;2.20;;;;;;;0.74;50.46;96651.63;4960822;28;20607;-59
2022/01/15 07:01:00;;;;;;;7.55;2.13;;;;;;;0.93;48.46;96646.16;4954373;28;20107;-59
2022/01/15 07:03:26;;;;;;;14.88;1.98;;;;;;;0.97;48.17;96644.19;4964644;28;20083;-58
2022/01/15 07:05:51;;;;;;;9.48;2.25;;;;;;;0.91;49.19;96641.91;4964178;28;20332;-59
2022/01/15 07:08:17;;;;;;;19.25;1.95;;;;;;;0.79;51.05;96649.56;4966789;28;20287;-59
2022/01/15 07:10:43;;;;;;;22.88;3.05;;;;;;;0.79;48.84;96656.63;4951489;28;20115;-59
2022/01/15 07:13:09;;;;;;;20.17;3.83;;;;;;;0.77;49.19;96651.47;4961605;28;20497;-59
2022/01/15 07:15:34;;;;;;;22.10;4.25;;;;;;;0.63;49.68;96648.78;4964011;28;20399;-59
2022/01/15 07:18:00;;;;;;;18.27;3.70;;;;;;;0.69;50.92;96645.81;4969056;28;20111;-59
2022/01/15 07:20:25;;;;;;;28.08;8.40;;;;;;;0.65;52.32;96641.69;4964102;28;20083;-59
2022/01/15 07:22:51;;;;;;;22.70;3.15;;;;;;;0.74;49.99;96646.38;4962035;28;20702;-59
2022/01/15 07:25:16;;;;;;;10.30;2.20;;;;;;;0.65;51.78;96650.38;4963594;28;20130;-59
2022/01/15 07:27:42;;;;;;;14.20;2.40;;;;;;;0.56;50.57;96649.19;4963877;28;20078;-58
2022/01/15 07:30:08;;;;;;;14.48;2.72;;;;;;;0.65;50.65;96642.53;4963963;28;20103;-59
2022/01/15 07:32:34;;;;;;;3.55;2.08;;;;;;;0.71;51.19;96639.56;4964164;28;20452;-59
2022/01/15 07:35:00;;;;;;;14.70;2.50;;;;;;;0.55;52.45;96652.69;4963952;28;20086;-59
2022/01/15 07:37:25;;;;;;;4.20;2.20;;;;;;;0.46;54.09;96655.88;4963571;28;20126;-59
2022/01/15 07:39:51;;;;;;;16.60;2.13;;;;;;;0.69;52.99;96656.31;4953724;28;20191;-59
2022/01/15 07:42:16;;;;;;;7.47;2.40;;;;;;;0.72;51.54;96650.91;4950229;28;20103;-59
2022/01/15 07:44:41;;;;;;;9.18;2.67;;;;;;;0.89;48.33;96652.50;4949402;28;20584;-59
2022/01/15 07:47:07;;;;;;;21.90;2.65;;;;;;;0.87;49.36;96656.13;4966785;28;20086;-59
2022/01/15 07:49:33;;;;;;;15.27;2.35;;;;;;;0.95;48.33;96651.28;4971376;28;20173;-59
2022/01/15 07:51:59;;;;;;;5.60;2.45;;;;;;;1.05;47.57;96655.03;4963424;28;20127;-59
2022/01/15 07:54:25;;;;;;;16.95;2.80;;;;;;;0.92;48.81;96654.94;4963719;28;20118;-59
2022/01/15 07:56:54;;;;;;;10.35;2.58;;;;;;;0.98;49.06;96648.47;4963568;28;20127;-59
2022/01/15 07:59:20;;;;;;;18.77;2.38;;;;;;;1.10;47.82;96641.66;4953505;28;20075;-59
2022/01/15 08:01:46;;;;;;;15.75;2.30;;;;;;;1.14;47.76;96642.31;4967118;28;20107;-59
2022/01/15 08:04:11;;;;;;;10.60;2.40;;;;;;;1.05;47.76;96647.19;4967984;28;20130;-58
2022/01/15 08:06:39;;;;;;;17.75;2.45;;;;;;;1.18;47.31;96639.41;4963134;28;20099;-59
2022/01/15 08:09:04;;;;;;;4.03;2.35;;;;;;;1.17;47.40;96639.50;4961383;28;20479;-59
2022/01/15 08:11:30;;;;;;;3.85;2.20;;;;;;;1.26;47.87;96635.47;4960782;28;20087;-59
2022/01/15 08:13:55;;;;;;;9.73;2.22;;;;;;;1.20;49.11;96631.44;4954968;28;20104;-59
2022/01/15 08:16:20;;;;;;;16.80;2.10;;;;;;;1.15;50.13;96629.09;4960476;28;20103;-59
2022/01/15 08:18:46;;;;;;;15.30;2.83;;;;;;;1.26;49.44;96627.59;4953030;28;20123;-58
2022/01/15 08:21:11;;;;;;;18.42;2.90;;;;;;;1.37;50.83;96633.88;4956236;28;20158;-59
2022/01/15 08:23:38;;;;;;;11.35;2.90;;;;;;;1.48;49.01;96627.13;4956379;28;20513;-59
2022/01/15 08:26:03;;;;;;;7.47;2.80;;;;;;;1.59;48.03;96629.94;4950955;28;20110;-58
2022/01/15 08:28:29;;;;;;;17.35;2.78;;;;;;;1.77;45.77;96624.44;4952380;28;20501;-59
2022/01/15 08:30:54;;;;;;;7.45;2.67;;;;;;;1.78;45.62;96620.91;4956555;28;20461;-59
2022/01/15 08:33:20;;;;;;;7.50;3.60;;;;;;;1.61;48.05;96629.84;4963161;28;20128;-59
2022/01/15 08:35:45;;;;;;;6.82;2.40;;;;;;;1.75;45.61;96623.72;4979181;28;20082;-59
2022/01/15 08:38:10;;;;;;;6.47;2.90;;;;;;;1.84;46.61;96617.03;4962443;28;20343;-59
2022/01/15 08:40:36;;;;;;;3.22;2.72;;;;;;;1.86;45.68;96626.50;4961677;28;20158;-59
2022/01/15 08:43:02;;;;;;;10.85;4.57;;;;;;;1.74;51.51;96624.66;4957104;28;20113;-59
2022/01/15 08:45:27;;;;;;;18.40;4.25;;;;;;;1.64;52.38;96620.94;4960947;28;20102;-67
2022/01/15 08:47:54;;;;;;;11.93;5.07;;;;;;;1.75;52.71;96621.09;4959746;28;20632;-69
2022/01/15 08:50:19;;;;;;;8.02;4.35;;;;;;;1.88;51.91;96621.97;4978087;28;20119;-69
2022/01/15 08:52:45;;;;;;;12.57;4.57;;;;;;;1.96;52.19;96620.66;4966171;28;20083;-69
2022/01/15 08:55:10;;;;;;;16.10;4.35;;;;;;;2.06;51.58;96624.38;4956794;28;20079;-64
2022/01/15 08:57:36;;;;;;;8.50;4.15;;;;;;;2.18;50.44;96616.66;4958358;28;20115;-63
2022/01/15 09:00:04;;;;;;;7.25;4.40;;;;;;;2.23;49.82;96618.03;4952993;28;20429;-63
2022/01/15 09:02:30;;;;;;;7.55;4.30;;;;;;;2.35;50.14;96612.91;4958950;28;20206;-64
2022/01/15 09:04:55;;;;;;;8.35;4.53;;;;;;;2.36;49.40;96610.19;4966672;28;20114;-65
2022/01/15 09:07:21;;;;;;;9.18;5.55;;;;;;;2.35;48.54;96600.59;4966457;28;20083;-63
2022/01/15 09:09:46;;;;;;;11.13;7.22;;;;;;;2.42;49.69;96601.03;4954913;28;20510;-62
2022/01/15 09:12:12;;;;;;;13.55;8.02;;;;;;;2.53;49.77;96605.56;4966933;28;20182;-67
2022/01/15 09:14:38;;;;;;;13.88;8.70;;;;;;;2.84;48.83;96603.50;4949261;28;20421;-65
2022/01/15 09:17:04;;;;;;;14.45;9.13;;;;;;;2.89;49.02;96606.66;4965788;28;20501;-66
2022/01/15 09:19:29;;;;;;;19.02;9.32;;;;;;;3.03;48.28;96605.69;4966205;28;20460;-66
2022/01/15 09:21:55;;;;;;;19.38;11.38;;;;;;;3.11;48.41;96596.44;4970705;28;20103;-67
2022/01/15 09:24:20;;;;;;;19.27;10.85;;;;;;;3.27;48.37;96604.94;4977132;28;20083;-65
2022/01/15 09:30:12;;;;;;;18.30;10.98;;;;;;;3.29;47.95;96607.47;4965848;28;20201;-66
2022/01/15 09:32:18;;;;;;;14.95;9.73;;;;;;;3.76;46.02;96606.84;4966142;28;20165;-65
2022/01/15 09:34:43;;;;;;;17.02;10.15;;;;;;;3.86;45.88;96599.97;4966015;28;20103;-66
2022/01/15 09:37:08;;;;;;;16.92;9.77;;;;;;;3.91;45.71;96597.84;4965661;28;20103;-66
2022/01/15 09:39:34;;;;;;;19.63;10.80;;;;;;;4.10;45.11;96599.13;4978675;28;20094;-66
2022/01/15 09:41:59;;;;;;;15.38;10.45;;;;;;;4.37;44.92;96598.03;4965744;28;20182;-66
2022/01/15 09:44:25;;;;;;;14.38;10.02;;;;;;;4.45;43.89;96592.19;4966365;28;20169;-67
2022/01/15 09:46:51;;;;;;;20.23;11.65;;;;;;;4.54;44.64;96594.16;4965056;28;20099;-66
2022/01/15 09:49:18;;;;;;;15.90;9.25;;;;;;;4.38;44.05;96599.72;4965464;28;20142;-66
2022/01/15 09:51:43;;;;;;;15.43;8.82;;;;;;;4.46;43.96;96596.53;4964091;28;20115;-67
2022/01/15 09:54:09;;;;;;;22.98;9.65;;;;;;;4.78;43.31;96595.88;4967967;28;20476;-67
2022/01/15 09:56:34;;;;;;;16.02;10.70;;;;;;;4.92;43.89;96601.88;4974876;28;20095;-68
2022/01/15 09:59:02;;;;;;;19.33;11.00;;;;;;;5.09;42.78;96593.53;4963841;28;20129;-67
2022/01/15 10:01:31;;;;;;;15.75;10.77;;;;;;;5.24;43.00;96588.03;4964980;28;20095;-67
2022/01/15 10:03:57;;;;;;;18.75;11.25;;;;;;;5.28;42.88;96591.25;4965347;28;20094;-67
2022/01/15 10:06:23;;;;;;;15.65;11.00;;;;;;;5.44;42.26;96586.44;4965137;28;20102;-66
2022/01/15 10:08:59;;;;;;;18.05;10.63;;;;;;;5.69;41.28;96589.78;4964911;28;20075;-66
2022/01/15 10:11:41;;;;;;;18.98;10.98;;;;;;;5.83;41.05;96585.19;4963633;28;20165;-67
2022/01/15 10:14:31;;;;;;;21.40;11.70;;;;;;;5.78;41.37;96587.34;4965358;28;20111;-67
2022/01/15 10:16:57;;;;;;;20.58;10.52;;;;;;;5.92;41.35;96586.25;4964327;28;20217;-66
2022/01/15 10:19:24;;;;;;;16.30;10.13;;;;;;;5.80;41.47;96593.34;4965206;28;20091;-67
2022/01/15 10:22:12;;;;;;;19.60;8.25;;;;;;;5.89;41.15;96584.69;4964858;28;20106;-65
2022/01/15 10:24:39;;;;;;;16.17;8.93;;;;;;;6.25;40.05;96585.28;4964807;28;20166;-66
2022/01/15 10:27:40;;;;;;;16.05;10.45;;;;;;;6.26;40.41;96578.19;4978718;28;20157;-66
2022/01/15 10:30:06;;;;;;;17.55;8.75;;;;;;;6.49;39.46;96580.75;4942216;28;20261;-66
2022/01/15 10:32:34;;;;;;;13.93;9.32;;;;;;;6.55;39.37;96574.09;4964763;28;20098;-66
2022/01/15 10:35:00;;;;;;;14.23;8.13;;;;;;;6.50;39.23;96577.97;4964661;28;20114;-67
2022/01/15 10:37:33;;;;;;;14.50;10.07;;;;;;;6.60;39.63;96577.22;4964702;28;20663;-68
2022/01/15 10:40:03;;;;;;;17.02;7.35;;;;;;;6.43;39.30;96568.81;4963095;28;20565;-68
2022/01/15 10:42:28;;;;;;;13.52;8.65;;;;;;;6.82;39.01;96576.22;4974840;28;20115;-68
2022/01/15 10:44:56;;;;;;;16.25;7.82;;;;;;;6.94;38.47;96570.84;4965160;28;20452;-69
2022/01/15 10:47:23;;;;;;;21.20;9.50;;;;;;;6.98;38.54;96566.97;4963354;28;20516;-69
2022/01/15 10:49:48;;;;;;;15.23;8.00;;;;;;;7.08;38.43;96564.38;4972817;28;20128;-68
2022/01/15 10:52:19;;;;;;;15.23;9.85;;;;;;;7.19;38.62;96564.28;4968350;28;20840;-68
2022/01/15 10:54:57;;;;;;;20.13;9.85;;;;;;;7.10;38.36;96562.41;4964353;28;20129;-69
2022/01/15 10:57:46;;;;;;;13.60;8.98;;;;;;;7.30;38.08;96558.03;4963355;28;20115;-69
2022/01/15 11:00:41;;;;;;;12.40;8.50;;;;;;;7.32;37.61;96548.16;4959705;28;20266;-67
2022/01/15 11:03:08;;;;;;;14.15;9.48;;;;;;;7.40;38.00;96550.97;4963731;28;20122;-67
2022/01/15 11:05:41;;;;;;;11.07;8.07;;;;;;;7.46;37.28;96546.94;4964018;28;20150;-67
2022/01/15 11:08:17;;;;;;;12.52;6.93;;;;;;;7.47;36.95;96538.00;4964583;28;20071;-69
2022/01/15 11:10:50;;;;;;;14.88;8.32;;;;;;;7.45;37.92;96534.66;4963969;28;20141;-68
2022/01/15 11:13:17;;;;;;;11.38;7.97;;;;;;;7.57;37.34;96532.72;4964051;28;20475;-68
2022/01/15 11:15:47;;;;;;;11.52;7.80;;;;;;;7.68;37.33;96529.13;4965101;28;20083;-68
2022/01/15 11:18:17;;;;;;;11.95;7.63;;;;;;;7.76;36.75;96525.78;4943612;28;20442;-70
2022/01/15 11:20:45;;;;;;;12.32;7.53;;;;;;;7.84;36.83;96517.16;4962658;28;20091;-69
2022/01/15 11:23:11;;;;;;;10.77;7.53;;;;;;;7.98;36.84;96522.06;4974116;28;20129;-69
2022/01/15 11:25:37;;;;;;;11.20;7.85;;;;;;;8.14;36.10;96518.03;4964987;28;20487;-69
2022/01/15 11:28:04;;;;;;;15.13;7.53;;;;;;;8.13;36.38;96513.69;4964240;28;20063;-68
2022/01/15 11:30:29;;;;;;;11.57;6.70;;;;;;;8.11;36.44;96520.94;4951386;28;20107;-68
2022/01/15 11:32:55;;;;;;;10.25;7.07;;;;;;;8.40;36.02;96514.78;4962353;28;20081;-68
2022/01/15 11:35:20;;;;;;;11.73;6.72;;;;;;;8.54;35.20;96513.50;4963008;28;20194;-69
2022/01/15 11:37:49;;;;;;;11.45;6.78;;;;;;;8.53;35.54;96511.81;4962388;28;20576;-67
2022/01/15 11:40:35;;;;;;;13.43;7.35;;;;;;;8.42;35.57;96515.47;4951372;28;20094;-68
2022/01/15 11:43:25;;;;;;;8.55;6.45;;;;;;;8.57;35.10;96507.94;4975961;28;20409;-68
2022/01/15 11:45:52;;;;;;;9.25;6.47;;;;;;;8.75;35.38;96500.03;4963739;28;20111;-68
2022/01/15 11:48:27;;;;;;;15.18;6.40;;;;;;;8.41;35.50;96492.59;4964177;28;20512;-68
2022/01/15 11:51:14;;;;;;;11.27;6.20;;;;;;;8.34;36.08;96494.13;4961974;28;20114;-67
2022/01/15 11:53:48;;;;;;;16.00;6.15;;;;;;;8.76;35.33;96484.94;4958274;28;20110;-68
2022/01/15 11:56:17;;;;;;;8.68;6.10;;;;;;;8.91;34.88;96482.66;4964082;28;20095;-69
2022/01/15 11:58:43;;;;;;;9.23;5.47;;;;;;;8.97;33.77;96478.63;4947840;28;20466;-69